Time;durP1;ratioP1;P1;durP2;ratioP2;P2;SDS_P1;SDS_P2;PMS_P1;PMS_P2;Temp;Humidity;BMP_temperature;BMP_pressure;BME280_temperature;BME280_humidity;BME280_pressure;Samples;Min_cycle;Max_cycle;Signal;HPM_P1;HPM_P2
2022/04/02 00:01:40;;;;;;;3.00;1.45;;;11.10;79.90;;;;;;5085462;28;20051;-63
2022/04/02 00:04:07;;;;;;;4.15;1.70;;;11.10;80.30;;;;;;5087354;28;20033;-63
2022/04/02 00:06:33;;;;;;;4.30;1.70;;;11.30;80.00;;;;;;5070054;28;20493;-63
2022/04/02 00:08:59;;;;;;;3.55;1.60;;;;;;;;;;5080977;28;20036;-67
2022/04/02 00:11:25;;;;;;;3.42;1.48;;;11.20;80.00;;;;;;5072909;28;20486;-63
2022/04/02 00:13:50;;;;;;;3.50;1.48;;;11.10;80.00;;;;;;5073022;28;20094;-63
2022/04/02 00:16:16;;;;;;;4.22;1.52;;;11.20;80.30;;;;;;5073091;28;20094;-63
2022/04/02 00:18:42;;;;;;;2.97;1.50;;;11.20;80.30;;;;;;5073428;28;20056;-63
2022/04/02 00:21:08;;;;;;;3.35;1.50;;;10.80;80.00;;;;;;5073913;28;20056;-63
2022/04/02 00:23:39;;;;;;;5.45;1.70;;;11.30;80.30;;;;;;5073210;28;20479;-64
2022/04/02 00:26:24;;;;;;;3.30;1.58;;;11.00;77.60;;;;;;5083963;28;20036;-64
2022/04/02 00:28:50;;;;;;;4.13;1.75;;;;;;;;;;5091151;28;20048;-62
2022/04/02 00:31:16;;;;;;;4.70;1.50;;;11.00;80.10;;;;;;5081060;28;20051;-63
2022/04/02 00:33:46;;;;;;;4.72;1.90;;;11.10;77.80;;;;;;5080414;28;20539;-62
2022/04/02 00:36:12;;;;;;;4.40;1.73;;;11.10;80.30;;;;;;5071575;28;20102;-64
2022/04/02 00:38:39;;;;;;;3.47;1.45;;;11.00;80.50;;;;;;5071816;28;20105;-63
2022/04/02 00:41:05;;;;;;;3.67;1.42;;;11.00;80.30;;;;;;5072007;28;20044;-64
2022/04/02 00:43:32;;;;;;;3.50;1.42;;;11.00;77.30;;;;;;5082677;28;20037;-63
2022/04/02 00:45:59;;;;;;;3.67;1.70;;;11.00;77.80;;;;;;5076041;28;20049;-63
2022/04/02 00:48:26;;;;;;;4.97;1.75;;;10.80;80.40;;;;;;5087796;28;20081;-64
2022/04/02 00:50:55;;;;;;;4.00;1.80;;;11.10;80.40;;;;;;5092534;28;20059;-63
2022/04/02 00:53:21;;;;;;;4.57;1.60;;;11.20;78.00;;;;;;5090333;28;20123;-63
2022/04/02 00:55:47;;;;;;;2.75;1.60;;;10.90;80.40;;;;;;5092333;28;20358;-63
2022/04/02 00:58:13;;;;;;;4.18;1.77;;;10.80;78.00;;;;;;5075820;28;20055;-63
2022/04/02 01:00:42;;;;;;;3.50;1.60;;;;;;;;;;5084944;28;20044;-63
2022/04/02 01:03:09;;;;;;;3.95;1.42;;;;;;;;;;5079877;28;20059;-64
2022/04/02 01:05:35;;;;;;;3.65;1.70;;;11.20;80.40;;;;;;5086974;28;20117;-62
2022/04/02 01:08:05;;;;;;;3.83;1.80;;;;;;;;;;5088603;28;20040;-64
2022/04/02 01:10:35;;;;;;;4.80;1.58;;;10.90;76.00;;;;;;5081938;28;20118;-63
2022/04/02 01:13:01;;;;;;;5.97;1.73;;;11.00;80.50;;;;;;5074900;28;20124;-63
2022/04/02 01:15:27;;;;;;;3.10;1.60;;;10.90;80.50;;;;;;5082247;28;20147;-63
2022/04/02 01:17:53;;;;;;;4.57;1.80;;;11.30;80.80;;;;;;5072611;28;20047;-64
2022/04/02 01:20:18;;;;;;;4.07;1.90;;;11.00;81.10;;;;;;5074016;28;20050;-63
2022/04/02 01:22:48;;;;;;;3.53;1.30;;;11.20;78.30;;;;;;5072536;28;20048;-62
2022/04/02 01:25:14;;;;;;;4.32;1.88;;;;;;;;;;5073435;28;20149;-62
2022/04/02 01:27:40;;;;;;;3.53;1.60;;;11.00;78.20;;;;;;5086070;28;20037;-62
2022/04/02 01:30:06;;;;;;;3.78;1.60;;;10.90;80.50;;;;;;5074405;28;20108;-63
2022/04/02 01:32:32;;;;;;;3.53;1.58;;;;;;;;;;5075410;28;20037;-64
2022/04/02 01:34:59;;;;;;;4.93;1.70;;;11.00;81.20;;;;;;5078514;28;20052;-64
2022/04/02 01:37:24;;;;;;;4.00;1.65;;;10.90;80.60;;;;;;5078450;28;20371;-64
2022/04/02 01:39:50;;;;;;;3.40;1.40;;;10.90;80.80;;;;;;5077833;28;20101;-64
2022/04/02 01:42:20;;;;;;;4.53;1.48;;;11.00;80.60;;;;;;5092355;28;20051;-64
2022/04/02 01:44:51;;;;;;;5.65;1.60;;;11.00;80.50;;;;;;5060135;28;20128;-64
2022/04/02 01:47:18;;;;;;;3.42;1.30;;;10.80;80.40;;;;;;5081374;28;20442;-62
2022/04/02 01:49:44;;;;;;;4.28;1.70;;;10.90;80.60;;;;;;5095125;28;20409;-62
2022/04/02 01:52:11;;;;;;;3.30;1.50;;;10.70;80.70;;;;;;5088131;28;20041;-61
2022/04/02 01:54:36;;;;;;;3.75;1.50;;;11.10;80.70;;;;;;5075256;28;20036;-62
2022/04/02 01:57:03;;;;;;;6.05;1.88;;;10.80;78.10;;;;;;5092959;28;20386;-61
2022/04/02 01:59:29;;;;;;;4.78;1.85;;;10.90;80.50;;;;;;5090518;28;20032;-64
2022/04/02 02:01:55;;;;;;;4.07;1.60;;;10.90;80.40;;;;;;5091493;28;20521;-64
2022/04/02 02:04:21;;;;;;;4.65;1.70;;;11.00;80.30;;;;;;5079013;28;20051;-64
2022/04/02 02:06:46;;;;;;;3.08;1.45;;;11.00;80.40;;;;;;5078301;28;20047;-64
2022/04/02 02:09:12;;;;;;;6.38;1.65;;;11.20;78.30;;;;;;5089780;28;20047;-64
2022/04/02 02:11:40;;;;;;;3.92;1.50;;;11.00;80.50;;;;;;5081412;28;20083;-64
2022/04/02 02:14:05;;;;;;;3.75;1.63;;;11.10;80.60;;;;;;5080574;28;20050;-64
2022/04/02 02:16:31;;;;;;;6.65;1.83;;;11.20;80.90;;;;;;5082092;28;20036;-64
2022/04/02 02:18:57;;;;;;;3.47;1.63;;;11.10;80.70;;;;;;5095222;28;20505;-64
2022/04/02 02:21:23;;;;;;;4.88;1.80;;;;;;;;;;5076414;28;20048;-64
2022/04/02 02:23:48;;;;;;;6.05;1.85;;;11.10;80.60;;;;;;5075247;28;20432;-64
2022/04/02 02:26:14;;;;;;;3.50;1.55;;;;;;;;;;5077169;28;20040;-64
2022/04/02 02:28:41;;;;;;;3.85;1.60;;;10.90;78.10;;;;;;5092299;28;20079;-64
2022/04/02 02:31:07;;;;;;;5.95;1.83;;;;;;;;;;5093217;28;20179;-64
2022/04/02 02:36:18;;;;;;;3.92;1.50;;;;;;;;;;5076041;28;20036;-64
2022/04/02 02:38:45;;;;;;;3.88;1.60;;;11.00;80.50;;;;;;5090679;28;20044;-64
2022/04/02 02:41:11;;;;;;;4.20;1.60;;;11.00;80.60;;;;;;5076956;28;20051;-64
2022/04/02 02:43:37;;;;;;;4.32;1.83;;;10.70;80.50;;;;;;5074327;28;21009;-64
2022/04/02 02:46:03;;;;;;;4.65;1.70;;;11.20;80.70;;;;;;5086522;28;20079;-64
2022/04/02 02:48:28;;;;;;;4.32;1.52;;;11.00;80.50;;;;;;5092899;28;20067;-65
2022/04/02 02:50:54;;;;;;;5.88;1.63;;;10.80;78.00;;;;;;5085492;28;20040;-64
2022/04/02 02:53:20;;;;;;;4.30;1.77;;;11.10;80.70;;;;;;5073167;28;20044;-64
2022/04/02 02:55:48;;;;;;;4.55;1.52;;;10.90;80.50;;;;;;5084293;28;20084;-64
2022/04/02 02:58:14;;;;;;;3.25;1.33;;;11.00;78.10;;;;;;5080642;28;20417;-64
2022/04/02 03:00:40;;;;;;;4.68;2.08;;;11.10;80.50;;;;;;5081007;28;20043;-63
2022/04/02 03:03:06;;;;;;;4.78;1.38;;;11.20;78.20;;;;;;5084779;28;20059;-63
2022/04/02 03:05:32;;;;;;;4.22;1.35;;;11.00;80.50;;;;;;5083244;28;20075;-62
2022/04/02 03:07:58;;;;;;;5.25;1.55;;;11.00;80.70;;;;;;5087038;28;20099;-62
2022/04/02 03:10:26;;;;;;;3.33;1.67;;;11.00;80.40;;;;;;5086350;28;20389;-63
2022/04/02 03:12:52;;;;;;;3.15;1.42;;;11.00;80.50;;;;;;5092392;28;20052;-63
2022/04/02 03:15:19;;;;;;;5.30;1.70;;;11.00;80.50;;;;;;5090892;28;20051;-63
2022/04/02 03:17:45;;;;;;;3.05;1.63;;;11.00;77.50;;;;;;5087365;28;20059;-62
2022/04/02 03:20:11;;;;;;;4.05;1.75;;;11.30;80.90;;;;;;5077478;28;20114;-62
2022/04/02 03:22:41;;;;;;;3.17;1.30;;;11.00;78.10;;;;;;5091918;28;20055;-65
2022/04/02 03:25:09;;;;;;;3.88;1.60;;;10.90;80.50;;;;;;5087388;28;20040;-64
2022/04/02 03:27:35;;;;;;;3.70;1.50;;;11.10;78.20;;;;;;5074643;28;20435;-65
2022/04/02 03:30:01;;;;;;;3.47;1.63;;;;;;;;;;5073925;28;20049;-64
2022/04/02 03:32:27;;;;;;;5.25;1.60;;;11.00;80.60;;;;;;5073990;28;20083;-65
2022/04/02 03:34:53;;;;;;;3.72;1.55;;;10.70;77.90;;;;;;5073660;28;20497;-62
2022/04/02 03:37:19;;;;;;;5.68;1.58;;;11.20;80.80;;;;;;5071894;28;20049;-65
2022/04/02 03:39:45;;;;;;;4.15;1.70;;;;;;;;;;5076062;28;20150;-66
2022/04/02 03:42:11;;;;;;;2.80;1.42;;;;;;;;;;5094076;28;20040;-63
2022/04/02 03:44:37;;;;;;;4.28;1.42;;;10.90;80.80;;;;;;5090914;28;20083;-65
2022/04/02 03:47:09;;;;;;;3.35;1.35;;;11.00;78.30;;;;;;5073618;28;20080;-63
2022/04/02 03:49:39;;;;;;;4.10;1.80;;;11.10;80.80;;;;;;5074066;28;20461;-63
2022/04/02 03:52:05;;;;;;;4.68;1.60;;;10.80;78.20;;;;;;5073847;28;20047;-62
2022/04/02 03:54:31;;;;;;;4.78;1.50;;;11.00;80.70;;;;;;5073176;28;20090;-62
2022/04/02 03:56:57;;;;;;;3.95;1.60;;;10.80;80.60;;;;;;5087913;28;20043;-62
2022/04/02 03:59:23;;;;;;;3.33;1.40;;;11.00;80.60;;;;;;5087608;28;20440;-63
2022/04/02 04:01:49;;;;;;;2.97;1.55;;;;;;;;;;5076385;28;20056;-63
2022/04/02 04:04:15;;;;;;;4.40;1.83;;;11.00;80.30;;;;;;5088921;28;20044;-62
2022/04/02 04:06:41;;;;;;;4.03;1.73;;;;;;;;;;5089826;28;20052;-62
2022/04/02 04:09:08;;;;;;;4.85;1.80;;;11.10;80.60;;;;;;5084927;28;20044;-62
2022/04/02 04:11:34;;;;;;;4.22;1.60;;;;;;;;;;5088278;28;20127;-61
2022/04/02 04:14:00;;;;;;;5.10;2.00;;;;;;;;;;5088327;28;20544;-61
2022/04/02 04:16:27;;;;;;;3.92;1.73;;;;;;;;;;5089137;28;20036;-62
2022/04/02 04:18:53;;;;;;;3.92;1.77;;;;;;;;;;5092016;28;20051;-63
2022/04/02 04:21:18;;;;;;;7.35;2.03;;;11.20;80.80;;;;;;5087240;28;20040;-61
2022/04/02 04:23:44;;;;;;;4.82;1.58;;;;;;;;;;5087830;28;20493;-62
2022/04/02 04:26:13;;;;;;;4.22;1.65;;;;;;;;;;5087610;28;20393;-61
2022/04/02 04:28:39;;;;;;;4.05;1.50;;;11.00;80.90;;;;;;5083928;28;20036;-62
2022/04/02 04:31:05;;;;;;;4.63;1.83;;;11.00;80.90;;;;;;5090365;28;20101;-64
2022/04/02 04:33:33;;;;;;;3.22;1.40;;;;;;;;;;5087930;28;20052;-64
2022/04/02 04:36:02;;;;;;;4.43;1.67;;;;;;;;;;5084383;28;20036;-61
2022/04/02 04:38:29;;;;;;;4.93;1.60;;;;;;;;;;5088509;28;20427;-62
2022/04/02 04:40:55;;;;;;;3.67;1.67;;;10.90;81.00;;;;;;5089412;28;20111;-63
2022/04/02 04:43:21;;;;;;;6.53;1.73;;;11.00;80.90;;;;;;5086508;28;20217;-63
2022/04/02 04:45:47;;;;;;;4.80;1.92;;;;;;;;;;5089147;28;20040;-63
2022/04/02 04:48:12;;;;;;;4.47;1.70;;;11.10;81.10;;;;;;5091420;28;20100;-65
2022/04/02 04:50:39;;;;;;;5.55;2.05;;;;;;;;;;5090459;28;20048;-66
2022/04/02 04:53:04;;;;;;;5.68;1.60;;;10.80;81.00;;;;;;5087056;28;20044;-62
2022/04/02 04:55:30;;;;;;;4.47;1.55;;;;;;;;;;5087967;28;20459;-63
2022/04/02 04:57:56;;;;;;;3.67;1.52;;;11.10;81.40;;;;;;5091076;28;20500;-63
2022/04/02 05:00:23;;;;;;;3.40;1.48;;;;;;;;;;5091860;28;20047;-65
2022/04/02 05:02:48;;;;;;;9.65;2.15;;;11.20;81.70;;;;;;5096056;28;20063;-62
2022/04/02 05:05:14;;;;;;;6.50;2.00;;;11.50;81.50;;;;;;5094818;28;20040;-62
2022/04/02 05:07:40;;;;;;;5.32;1.70;;;11.20;81.40;;;;;;5094718;28;20078;-62
2022/04/02 05:10:07;;;;;;;4.97;2.05;;;;;;;;;;5096142;28;20032;-62
2022/04/02 05:12:33;;;;;;;7.75;1.63;;;11.10;81.30;;;;;;5094726;28;20047;-62
2022/04/02 05:14:59;;;;;;;4.85;1.60;;;11.00;81.40;;;;;;5094877;28;20032;-64
2022/04/02 05:17:25;;;;;;;7.82;2.15;;;11.30;79.10;;;;;;5094849;28;20200;-65
2022/04/02 05:19:51;;;;;;;7.15;2.00;;;10.90;81.30;;;;;;5109214;28;20032;-62
2022/04/02 05:22:16;;;;;;;5.20;1.85;;;10.90;81.30;;;;;;5101701;28;20513;-62
2022/04/02 05:24:42;;;;;;;4.22;1.80;;;11.00;81.40;;;;;;5095029;28;20060;-62
2022/04/02 05:27:09;;;;;;;5.97;1.88;;;;;;;;;;5095280;28;20048;-62
2022/04/02 05:29:35;;;;;;;5.43;1.83;;;11.00;81.50;;;;;;5092736;28;20397;-61
2022/04/02 05:32:02;;;;;;;5.13;1.75;;;11.20;81.50;;;;;;5095120;28;20397;-63
2022/04/02 05:34:29;;;;;;;7.40;2.28;;;;;;;;;;5092359;28;20090;-62
2022/04/02 05:36:55;;;;;;;6.38;2.05;;;11.00;81.30;;;;;;5095434;28;20047;-63
2022/04/02 05:39:21;;;;;;;6.10;1.75;;;11.00;81.30;;;;;;5093460;28;20048;-63
2022/04/02 05:41:48;;;;;;;4.88;2.05;;;;;;;;;;5094628;28;20126;-62
2022/04/02 05:44:14;;;;;;;4.07;1.63;;;11.00;81.30;;;;;;5091030;28;20441;-63
2022/04/02 05:46:39;;;;;;;5.88;1.63;;;11.10;81.40;;;;;;5094897;28;20075;-62
2022/04/02 05:49:05;;;;;;;6.60;1.70;;;11.10;81.40;;;;;;5093468;28;20043;-62
2022/04/02 05:51:31;;;;;;;6.35;2.08;;;11.20;81.50;;;;;;5092505;28;20044;-62
2022/04/02 05:53:57;;;;;;;4.75;1.73;;;10.40;77.90;;;;;;5095072;28;20482;-62
2022/04/02 05:56:23;;;;;;;3.90;2.15;;;11.20;81.40;;;;;;5094977;28;20424;-62
2022/04/02 05:58:51;;;;;;;6.43;2.03;;;;;;;;;;5094966;28;20097;-62
2022/04/02 06:01:17;;;;;;;6.60;1.98;;;;;;;;;;5072886;28;20048;-63
2022/04/02 06:03:43;;;;;;;5.57;2.00;;;11.20;81.30;;;;;;5090786;28;20052;-62
2022/04/02 06:06:09;;;;;;;3.83;1.75;;;10.80;81.10;;;;;;5076685;28;20079;-63
2022/04/02 06:08:35;;;;;;;3.72;1.60;;;11.20;81.30;;;;;;5085550;28;20080;-62
2022/04/02 06:11:01;;;;;;;4.15;1.73;;;11.10;78.80;;;;;;5074938;28;20507;-63
2022/04/02 06:13:27;;;;;;;4.32;1.70;;;11.10;80.70;;;;;;5074427;28;20102;-63
2022/04/02 06:15:53;;;;;;;5.20;1.80;;;11.30;81.40;;;;;;5074010;28;20045;-62
2022/04/02 06:18:19;;;;;;;5.03;1.55;;;11.50;81.30;;;;;;5092290;28;20067;-63
2022/04/02 06:20:46;;;;;;;4.18;1.85;;;11.30;81.10;;;;;;5095670;28;20032;-64
2022/04/02 06:23:13;;;;;;;5.95;2.10;;;;;;;;;;5095682;28;20047;-64
2022/04/02 06:25:39;;;;;;;4.07;1.73;;;11.60;81.10;;;;;;5084034;28;20167;-64
2022/04/02 06:28:05;;;;;;;3.08;1.65;;;11.60;81.10;;;;;;5074989;28;20080;-64
2022/04/02 06:30:31;;;;;;;5.88;2.08;;;11.90;81.10;;;;;;5074935;28;20044;-66
2022/04/02 06:32:56;;;;;;;4.90;1.90;;;12.00;80.60;;;;;;5074744;28;20051;-65
2022/04/02 06:35:22;;;;;;;4.90;1.83;;;12.20;80.80;;;;;;5074877;28;20119;-65
2022/04/02 06:37:48;;;;;;;4.53;1.80;;;12.40;80.30;;;;;;5074766;28;20056;-64
2022/04/02 06:40:14;;;;;;;4.07;1.85;;;12.50;80.20;;;;;;5074683;28;20041;-65
2022/04/02 06:42:40;;;;;;;4.63;1.80;;;12.50;79.80;;;;;;5074029;28;20088;-65
2022/04/02 06:45:07;;;;;;;4.03;1.80;;;;;;;;;;5074918;28;20037;-62
2022/04/02 06:47:33;;;;;;;4.85;1.70;;;12.80;76.90;;;;;;5074923;28;20379;-63
2022/04/02 06:50:04;;;;;;;3.55;1.60;;;12.90;76.40;;;;;;5074678;28;20102;-63
2022/04/02 06:52:30;;;;;;;4.15;1.70;;;13.00;79.10;;;;;;5073344;28;20060;-62
2022/04/02 06:54:56;;;;;;;5.68;2.03;;;13.10;76.40;;;;;;5074775;28;20041;-65
2022/04/02 06:57:22;;;;;;;3.40;1.77;;;13.10;78.70;;;;;;5074301;28;20052;-63
2022/04/02 06:59:48;;;;;;;6.40;1.90;;;13.40;76.00;;;;;;5074039;28;20051;-64
2022/04/02 07:02:15;;;;;;;5.13;1.98;;;13.60;78.50;;;;;;5072636;28;20053;-63
2022/04/02 07:04:41;;;;;;;4.18;1.55;;;13.60;78.20;;;;;;5074546;28;20410;-62
2022/04/02 07:07:07;;;;;;;3.78;1.60;;;13.70;78.00;;;;;;5069318;28;20055;-63
2022/04/02 07:09:33;;;;;;;3.35;1.65;;;13.40;77.70;;;;;;5072914;28;20044;-64
2022/04/02 07:11:58;;;;;;;3.92;1.65;;;14.00;77.80;;;;;;5074167;28;20050;-61
2022/04/02 07:14:24;;;;;;;3.75;1.52;;;14.00;77.70;;;;;;5074010;28;20119;-63
2022/04/02 07:16:50;;;;;;;5.90;1.88;;;13.90;77.30;;;;;;5086670;28;20129;-65
2022/04/02 07:19:20;;;;;;;5.20;1.50;;;;;;;;;;5094371;28;20481;-65
2022/04/02 07:21:45;;;;;;;4.22;1.58;;;14.10;77.30;;;;;;5093816;28;20131;-62
2022/04/02 07:24:12;;;;;;;3.65;1.70;;;14.00;77.00;;;;;;5092686;28;20173;-63
2022/04/02 07:26:38;;;;;;;5.70;1.80;;;14.40;77.30;;;;;;5094362;28;20043;-63
2022/04/02 07:29:04;;;;;;;4.00;1.45;;;;;;;;;;5093932;28;20040;-63
2022/04/02 07:31:29;;;;;;;5.13;1.60;;;14.00;74.00;;;;;;5091304;28;20127;-64
2022/04/02 07:33:55;;;;;;;4.85;2.05;;;13.80;76.60;;;;;;5091987;28;20068;-64
2022/04/02 07:36:27;;;;;;;5.63;2.00;;;14.50;74.30;;;;;;5093731;28;20051;-63
2022/04/02 07:39:02;;;;;;;3.88;1.60;;;14.50;72.80;;;;;;5091735;28;20036;-63
2022/04/02 07:41:46;;;;;;;3.80;1.55;;;14.30;73.90;;;;;;5093757;28;20083;-63
2022/04/02 07:44:26;;;;;;;4.70;1.80;;;14.50;76.60;;;;;;5092856;28;20047;-62
2022/04/02 07:46:53;;;;;;;4.97;1.73;;;;;;;;;;5092924;28;20398;-63
2022/04/02 07:49:20;;;;;;;5.03;2.00;;;14.20;76.50;;;;;;5092144;28;20040;-64
2022/04/02 07:51:47;;;;;;;5.03;1.90;;;14.30;76.60;;;;;;5093547;28;20044;-62
2022/04/02 07:54:13;;;;;;;7.30;2.00;;;14.30;76.70;;;;;;5076093;28;20046;-63
2022/04/02 07:56:40;;;;;;;16.77;2.22;;;14.30;73.90;;;;;;5075918;28;20043;-64
2022/04/02 07:59:12;;;;;;;4.90;1.75;;;14.20;76.50;;;;;;5092461;28;20043;-62
2022/04/02 08:01:38;;;;;;;5.70;1.67;;;;;;;;;;5089422;28;20131;-62
2022/04/02 08:04:04;;;;;;;5.00;1.50;;;14.50;76.60;;;;;;5092327;28;20416;-64
2022/04/02 08:06:34;;;;;;;6.25;1.90;;;14.40;72.10;;;;;;5090594;28;20040;-62
2022/04/02 08:09:00;;;;;;;5.53;1.95;;;14.60;76.30;;;;;;5090964;28;20043;-63
2022/04/02 08:11:26;;;;;;;5.10;1.80;;;14.40;76.30;;;;;;5092688;28;20051;-64
2022/04/02 08:13:52;;;;;;;5.40;1.67;;;14.10;76.10;;;;;;5090966;28;20051;-63
2022/04/02 08:16:18;;;;;;;4.20;1.80;;;14.10;76.10;;;;;;5092005;28;20036;-63
2022/04/02 08:18:44;;;;;;;4.68;1.85;;;14.10;75.90;;;;;;5073791;28;20040;-62
2022/04/02 08:21:10;;;;;;;3.70;1.63;;;14.40;76.10;;;;;;5091901;28;20478;-65
2022/04/02 08:23:36;;;;;;;12.93;1.90;;;14.30;72.30;;;;;;5090116;28;20055;-62
2022/04/02 08:26:26;;;;;;;6.10;1.48;;;14.40;72.00;;;;;;5091394;28;20040;-62
2022/04/02 08:28:55;;;;;;;4.72;1.55;;;;;;;;;;5091192;28;20055;-63
2022/04/02 08:31:36;;;;;;;5.13;1.63;;;14.20;71.80;;;;;;5092057;28;20044;-63
2022/04/02 08:34:05;;;;;;;6.45;1.65;;;;;;;;;;5093118;28;20040;-62
2022/04/02 08:36:47;;;;;;;5.93;2.05;;;;;;;;;;5096222;28;20036;-63
2022/04/02 08:39:19;;;;;;;3.85;1.58;;;14.60;71.70;;;;;;5094183;28;20044;-62
2022/04/02 08:42:24;;;;;;;4.05;1.42;;;14.70;71.90;;;;;;5092884;28;20485;-63
2022/04/02 08:45:13;;;;;;;5.20;1.58;;;14.30;72.40;;;;;;5088193;28;20039;-62
2022/04/02 08:47:57;;;;;;;4.75;1.73;;;;;;;;;;5096221;28;20040;-64
2022/04/02 08:50:29;;;;;;;3.65;1.33;;;14.20;73.20;;;;;;5092950;28;20078;-64
2022/04/02 08:53:15;;;;;;;4.95;1.67;;;14.20;73.20;;;;;;5077843;28;20048;-64
2022/04/02 08:55:49;;;;;;;5.25;1.52;;;14.00;72.00;;;;;;5094631;28;20044;-63
2022/04/02 08:58:25;;;;;;;4.80;1.33;;;14.20;72.70;;;;;;5093911;28;20047;-63
2022/04/02 09:01:10;;;;;;;3.85;1.50;;;14.20;73.70;;;;;;5092943;28;20048;-63
2022/04/02 09:04:04;;;;;;;6.40;1.70;;;13.90;73.70;;;;;;5091309;28;20117;-62
2022/04/02 09:06:48;;;;;;;4.43;1.35;;;14.00;72.40;;;;;;5094734;28;20047;-64
2022/04/02 09:09:19;;;;;;;2.65;1.15;;;13.70;72.00;;;;;;5091631;28;20047;-64
2022/04/02 09:12:07;;;;;;;4.10;1.63;;;13.80;72.50;;;;;;5094017;28;20048;-63
2022/04/02 09:14:56;;;;;;;3.85;1.40;;;13.80;74.50;;;;;;5093628;28;20040;-64
2022/04/02 09:17:35;;;;;;;6.43;1.35;;;13.90;72.60;;;;;;5075416;28;20433;-63
2022/04/02 09:20:23;;;;;;;4.57;1.40;;;13.70;72.30;;;;;;5076162;28;20047;-65
2022/04/02 09:23:11;;;;;;;3.20;1.30;;;13.60;72.90;;;;;;5071036;28;20056;-64
2022/04/02 09:25:50;;;;;;;5.38;1.80;;;13.90;72.70;;;;;;5076425;28;20458;-65
2022/04/02 09:28:34;;;;;;;3.15;1.38;;;13.70;73.10;;;;;;5058571;28;20084;-66
2022/04/02 09:31:06;;;;;;;2.60;1.30;;;;;;;;;;5076373;28;20138;-65
2022/04/02 09:34:10;;;;;;;3.78;1.33;;;13.60;74.60;;;;;;5076890;28;20041;-65
2022/04/02 09:36:59;;;;;;;;;;;13.60;73.90;;;;;;5075730;28;20135;-63
2022/04/02 09:39:43;;;;;;;4.55;1.65;;;13.40;73.30;;;;;;5075930;28;19920;-63
2022/04/02 09:42:18;;;;;;;5.10;1.30;;;13.30;77.20;;;;;;5075993;28;20071;-65
2022/04/02 09:45:12;;;;;;;4.00;1.52;;;13.50;73.30;;;;;;5074388;28;20106;-62
2022/04/02 09:48:08;;;;;;;3.70;1.52;;;13.50;77.60;;;;;;5076070;28;20449;-68
2022/04/02 09:50:34;;;;;;;5.00;1.60;;;13.40;77.50;;;;;;5090859;28;20059;-69
2022/04/02 09:53:14;;;;;;;4.55;1.65;;;13.50;73.60;;;;;;5095395;28;20040;-64
2022/04/02 09:56:01;;;;;;;3.17;1.25;;;13.40;73.60;;;;;;5095605;28;20056;-66
2022/04/02 09:58:57;;;;;;;7.13;1.50;;;13.60;78.10;;;;;;5096097;28;20048;-62
2022/04/02 10:01:26;;;;;;;4.03;1.27;;;13.40;77.50;;;;;;5095207;28;20052;-62
2022/04/02 10:04:11;;;;;;;3.28;1.33;;;13.20;74.90;;;;;;5075159;28;20060;-61
2022/04/02 10:06:41;;;;;;;2.83;1.40;;;13.40;77.60;;;;;;5085263;28;20144;-63
2022/04/02 10:09:08;;;;;;;3.25;1.40;;;13.50;77.60;;;;;;5094781;28;20090;-61
2022/04/02 10:11:35;;;;;;;3.47;1.30;;;13.40;77.30;;;;;;5095508;28;20161;-61
2022/04/02 10:14:01;;;;;;;2.08;1.23;;;;;;;;;;5095404;28;20379;-63
2022/04/02 10:16:29;;;;;;;4.10;1.30;;;13.20;76.80;;;;;;5093882;28;20397;-62
2022/04/02 10:18:56;;;;;;;3.47;1.25;;;13.50;77.00;;;;;;5093862;28;20070;-62
2022/04/02 10:21:22;;;;;;;4.43;1.45;;;13.60;76.90;;;;;;5093963;28;20036;-62
2022/04/02 10:23:59;;;;;;;5.30;1.48;;;13.50;73.40;;;;;;5092323;28;20512;-61
2022/04/02 10:26:25;;;;;;;4.68;1.60;;;13.50;76.90;;;;;;5056531;28;20052;-64
2022/04/02 10:28:53;;;;;;;2.40;1.35;;;13.50;77.00;;;;;;5057363;28;20041;-62
2022/04/02 10:31:41;;;;;;;5.57;1.55;;;;;;;;;;5073777;28;20088;-65
2022/04/02 10:34:12;;;;;;;5.07;1.45;;;13.50;77.00;;;;;;5075111;28;20120;-65
2022/04/02 10:36:45;;;;;;;4.35;1.30;;;;;;;;;;5074679;28;20051;-66
2022/04/02 10:39:10;;;;;;;3.08;1.30;;;13.50;77.10;;;;;;5074795;28;20059;-63
2022/04/02 10:41:38;;;;;;;3.60;1.25;;;;;;;;;;5062529;28;20044;-63
2022/04/02 10:44:10;;;;;;;4.60;1.30;;;13.50;74.20;;;;;;5091233;28;20034;-62
2022/04/02 10:46:40;;;;;;;3.03;1.33;;;13.60;76.90;;;;;;5093782;28;20455;-66
2022/04/02 10:49:08;;;;;;;4.38;1.45;;;;;;;;;;5089860;28;20111;-65
2022/04/02 10:51:36;;;;;;;3.45;1.40;;;13.60;76.70;;;;;;5090833;28;20039;-62
2022/04/02 10:54:08;;;;;;;3.85;1.50;;;13.50;73.80;;;;;;5092434;28;20086;-62
2022/04/02 10:56:40;;;;;;;4.60;1.42;;;;;;;;;;5089451;28;20040;-62
2022/04/02 10:59:07;;;;;;;4.40;1.27;;;13.40;76.70;;;;;;5091702;28;20032;-65
2022/04/02 11:01:34;;;;;;;2.45;1.00;;;13.40;76.70;;;;;;5072799;28;20048;-65
2022/04/02 11:04:07;;;;;;;4.07;1.40;;;13.20;73.80;;;;;;5093046;28;20056;-62
2022/04/02 11:06:49;;;;;;;4.10;1.30;;;13.30;72.90;;;;;;5093129;28;20379;-62
2022/04/02 11:09:41;;;;;;;3.65;1.58;;;;;;;;;;5091744;28;20036;-66
2022/04/02 11:12:15;;;;;;;5.78;1.25;;;13.00;74.00;;;;;;5089552;28;20063;-66
2022/04/02 11:14:41;;;;;;;3.80;1.40;;;;;;;;;;5090665;28;20059;-66
2022/04/02 11:17:08;;;;;;;2.58;1.20;;;13.30;77.00;;;;;;5093071;28;20432;-63
2022/04/02 11:22:27;;;;;;;4.40;1.40;;;13.10;72.70;;;;;;5091187;28;20424;-65
2022/04/02 11:25:13;;;;;;;5.43;1.40;;;13.30;76.60;;;;;;5093441;28;20039;-63
2022/04/02 11:27:40;;;;;;;2.28;1.10;;;13.10;76.90;;;;;;5092412;28;20059;-64
2022/04/02 11:30:10;;;;;;;4.35;1.50;;;13.10;76.90;;;;;;5075540;28;20427;-62
2022/04/02 11:32:43;;;;;;;3.08;1.35;;;13.00;72.60;;;;;;5091630;28;20060;-64
2022/04/02 11:35:16;;;;;;;3.50;1.50;;;13.10;77.00;;;;;;5093554;28;20489;-65
2022/04/02 11:37:52;;;;;;;5.30;1.30;;;13.20;73.30;;;;;;5093810;28;20378;-66
2022/04/02 11:40:18;;;;;;;4.13;1.40;;;;;;;;;;5074643;28;20044;-66
2022/04/02 11:42:47;;;;;;;4.43;1.33;;;13.20;72.70;;;;;;5087320;28;20126;-65
2022/04/02 11:45:17;;;;;;;2.55;1.23;;;13.30;77.10;;;;;;5087357;28;20071;-62
2022/04/02 11:47:48;;;;;;;2.90;1.27;;;13.20;72.70;;;;;;5092712;28;20043;-62
2022/04/02 11:50:22;;;;;;;4.03;1.63;;;13.00;76.80;;;;;;5091248;28;20036;-62
2022/04/02 11:52:49;;;;;;;5.15;1.63;;;;;;;;;;5092472;28;20039;-62
2022/04/02 11:55:16;;;;;;;5.45;1.50;;;13.20;76.90;;;;;;5092169;28;20128;-63
2022/04/02 11:58:01;;;;;;;3.50;1.77;;;;;;;;;;5093193;28;20042;-63
2022/04/02 12:00:34;;;;;;;3.97;1.42;;;13.30;76.70;;;;;;5088497;28;20040;-65
2022/04/02 12:03:02;;;;;;;2.85;1.35;;;;;;;;;;5092716;28;20088;-62
2022/04/02 12:05:36;;;;;;;3.58;1.20;;;13.50;72.70;;;;;;5092158;28;20040;-65
2022/04/02 12:08:02;;;;;;;3.03;1.20;;;13.40;76.20;;;;;;5087142;28;20050;-63
2022/04/02 12:10:30;;;;;;;3.25;1.30;;;;;;;;;;5088197;28;20058;-63
2022/04/02 12:12:58;;;;;;;3.55;1.30;;;;;;;;;;5078121;28;20044;-65
2022/04/02 12:15:25;;;;;;;3.47;1.35;;;13.40;76.00;;;;;;5081472;28;20035;-61
2022/04/02 12:18:00;;;;;;;3.90;1.40;;;;;;;;;;5090983;28;20094;-61
2022/04/02 12:20:34;;;;;;;3.72;1.10;;;13.70;73.50;;;;;;5090741;28;20370;-62
2022/04/02 12:23:12;;;;;;;3.20;1.10;;;;;;;;;;5089902;28;20059;-64
2022/04/02 12:25:39;;;;;;;4.72;1.25;;;;;;;;;;5090771;28;20048;-65
2022/04/02 12:28:10;;;;;;;2.60;1.10;;;;;;;;;;5090783;28;20090;-64
2022/04/02 12:30:37;;;;;;;2.83;1.27;;;;;;;;;;5091087;28;20413;-64
2022/04/02 12:33:07;;;;;;;3.35;1.13;;;;;;;;;;5091042;28;20123;-65
2022/04/02 12:35:34;;;;;;;3.67;1.45;;;;;;;;;;5090583;28;20074;-64
2022/04/02 12:38:02;;;;;;;3.15;1.50;;;13.80;75.70;;;;;;5089701;28;20476;-65
2022/04/02 12:40:31;;;;;;;3.72;1.60;;;;;;;;;;5072224;28;20064;-65
2022/04/02 12:43:01;;;;;;;3.80;1.17;;;;;;;;;;5089623;28;20393;-63
2022/04/02 12:45:28;;;;;;;3.47;1.65;;;;;;;;;;5089615;28;20052;-62
2022/04/02 12:47:57;;;;;;;2.70;1.33;;;;;;;;;;5090415;28;20048;-62
2022/04/02 12:50:23;;;;;;;3.20;1.45;;;13.80;75.50;;;;;;5090911;28;20048;-62
2022/04/02 12:52:50;;;;;;;2.92;1.33;;;;;;;;;;5089398;28;20036;-64
2022/04/02 12:55:17;;;;;;;4.07;1.38;;;;;;;;;;5090223;28;20040;-63
2022/04/02 12:57:45;;;;;;;4.00;1.42;;;;;;;;;;5087192;28;20044;-64
2022/04/02 13:00:12;;;;;;;3.05;1.10;;;;;;;;;;5088779;28;20040;-65
2022/04/02 13:02:40;;;;;;;2.50;1.10;;;13.60;72.00;;;;;;5089114;28;20048;-65
2022/04/02 13:05:08;;;;;;;2.28;1.13;;;;;;;;;;5090655;28;20051;-61
2022/04/02 13:07:33;;;;;;;2.05;1.15;;;13.90;74.20;;;;;;5089166;28;20051;-63
2022/04/02 13:10:01;;;;;;;3.38;1.33;;;;;;;;;;5090442;28;20494;-63
2022/04/02 13:12:27;;;;;;;3.05;1.05;;;;;;;;;;5088139;28;20060;-63
2022/04/02 13:15:03;;;;;;;3.20;1.25;;;13.80;71.50;;;;;;5088807;28;20112;-65
2022/04/02 13:17:36;;;;;;;3.60;1.40;;;;;;;;;;5090784;28;20572;-67
2022/04/02 13:22:51;;;;;;;3.58;1.30;;;13.70;72.60;;;;;;5086246;28;19920;-66
2022/04/02 13:25:23;;;;;;;2.65;1.20;;;13.90;71.70;;;;;;5091311;28;20607;-65
2022/04/02 13:28:14;;;;;;;3.17;1.10;;;13.80;71.10;;;;;;5094007;28;20044;-64
2022/04/02 13:30:41;;;;;;;2.80;1.15;;;13.60;73.90;;;;;;5082891;28;20044;-64
2022/04/02 13:33:28;;;;;;;2.92;1.35;;;13.90;71.40;;;;;;5072554;28;20127;-64